Time;durP1;ratioP1;P1;durP2;ratioP2;P2;SDS_P1;SDS_P2;PMS_P1;PMS_P2;Temp;Humidity;BMP_temperature;BMP_pressure;BME280_temperature;BME280_humidity;BME280_pressure;Samples;Min_cycle;Max_cycle;Signal;HPM_P1;HPM_P2
2022/09/19 00:00:09;;;;;;;4.47;1.83;;;10.50;99.90;;;9.78;100.00;101841.00;5122283;23;20458;-74
2022/09/19 00:02:10;;;;;;;3.22;1.58;;;10.50;99.90;;;9.61;100.00;101812.56;5147662;23;20001;-74
2022/09/19 00:04:24;;;;;;;2.92;1.50;;;10.50;99.90;;;9.69;100.00;101839.94;5149046;23;20011;-74
2022/09/19 00:06:27;;;;;;;2.45;1.30;;;10.40;99.90;;;9.58;100.00;101824.19;5147842;23;20005;-74
2022/09/19 00:08:28;;;;;;;5.53;1.73;;;10.40;99.90;;;9.56;100.00;101822.63;5147148;23;20004;-74
2022/09/19 00:10:29;;;;;;;2.70;1.30;;;10.40;99.90;;;9.53;100.00;101823.69;5147507;23;20373;-74
2022/09/19 00:12:31;;;;;;;3.55;1.70;;;10.40;99.90;;;9.64;100.00;101846.56;5148966;23;20341;-74
2022/09/19 00:14:34;;;;;;;3.92;1.40;;;10.30;99.90;;;9.57;100.00;101851.47;5147745;23;20082;-74
2022/09/19 00:16:39;;;;;;;3.70;1.40;;;10.30;99.90;;;9.41;100.00;101830.78;5148973;23;20456;-74
2022/09/19 00:18:40;;;;;;;4.20;1.60;;;10.20;99.90;;;9.30;100.00;101825.53;5147669;23;20562;-74
2022/09/19 00:20:49;;;;;;;4.75;1.50;;;10.20;99.90;;;9.44;100.00;101853.38;5147417;23;20004;-74
2022/09/19 00:25:09;;;;;;;4.45;1.58;;;10.10;99.90;;;9.19;100.00;101829.97;5148638;23;20016;-74
2022/09/19 00:27:12;;;;;;;3.88;1.30;;;10.10;99.90;;;9.29;100.00;101854.59;5148917;23;20001;-74
2022/09/19 00:29:16;;;;;;;2.58;1.27;;;10.00;99.90;;;9.07;100.00;101836.19;5122460;23;20048;-74
2022/09/19 00:31:20;;;;;;;2.05;1.35;;;10.00;99.90;;;9.04;100.00;101837.28;5148740;23;20054;-74
2022/09/19 00:33:22;;;;;;;2.78;1.58;;;9.90;99.90;;;8.99;100.00;101839.41;5148616;23;20013;-74
2022/09/19 00:35:23;;;;;;;4.63;1.45;;;9.90;99.90;;;9.02;100.00;101847.06;5147372;23;20017;-74
2022/09/19 00:37:24;;;;;;;3.38;1.65;;;9.80;99.90;;;9.01;100.00;101853.31;5146986;23;20004;-74
2022/09/19 00:39:25;;;;;;;3.40;1.45;;;9.80;99.90;;;8.88;100.00;101837.63;5148890;23;20044;-74
2022/09/19 00:41:27;;;;;;;8.15;2.95;;;9.70;99.90;;;8.79;100.00;101834.84;5147163;23;20008;-74
2022/09/19 00:44:25;;;;;;;2.08;1.27;;;9.70;99.90;;;8.77;100.00;101840.25;5147157;23;20001;-74
2022/09/19 00:46:32;;;;;;;2.58;1.23;;;9.60;99.90;;;8.80;100.00;101853.16;4980728;23;20347;-74
2022/09/19 00:48:34;;;;;;;3.55;1.33;;;9.60;99.90;;;8.72;100.00;101846.81;5125165;23;20004;-74
2022/09/19 00:50:35;;;;;;;2.63;1.45;;;9.60;99.90;;;8.69;100.00;101844.41;5148851;23;20005;-74
2022/09/19 00:53:04;;;;;;;3.88;1.30;;;9.50;99.90;;;8.66;100.00;101844.66;5146924;23;20012;-74
2022/09/19 00:55:05;;;;;;;3.17;1.80;;;9.50;99.90;;;8.54;100.00;101827.97;5148828;23;20043;-74
2022/09/19 00:57:09;;;;;;;2.97;1.40;;;9.40;99.90;;;8.49;100.00;101819.63;5148761;23;20373;-74
2022/09/19 00:59:11;;;;;;;2.70;1.40;;;9.40;99.90;;;8.63;100.00;101852.78;5147154;23;20004;-74
2022/09/19 01:01:14;;;;;;;2.88;1.73;;;9.40;99.90;;;8.53;100.00;101831.59;5148781;23;20329;-74
2022/09/19 01:03:15;;;;;;;2.65;1.40;;;9.40;99.90;;;8.45;100.00;101836.59;5147187;23;20471;-74
2022/09/19 01:05:19;;;;;;;4.60;1.45;;;9.30;99.90;;;8.35;100.00;101817.19;5147131;23;20028;-74
2022/09/19 01:08:07;;;;;;;2.58;1.35;;;9.30;99.90;;;8.42;100.00;101844.72;5147854;23;20000;-74
2022/09/19 01:11:10;;;;;;;3.15;2.00;;;9.30;99.90;;;8.50;100.00;101852.84;5147286;23;20008;-74
2022/09/19 01:13:25;;;;;;;3.45;1.60;;;9.20;99.90;;;8.47;100.00;101853.09;5048073;23;20089;-74
2022/09/19 01:15:44;;;;;;;3.90;1.40;;;9.20;99.90;;;8.46;100.00;101850.56;5090762;23;20091;-74
2022/09/19 01:17:47;;;;;;;7.45;2.08;;;9.20;99.90;;;8.47;100.00;101852.25;5123573;23;20120;-74
2022/09/19 01:20:28;;;;;;;1.90;1.10;;;9.20;99.90;;;8.51;100.00;101862.41;5147126;23;20016;-74
2022/09/19 01:22:43;;;;;;;3.50;1.70;;;9.20;99.90;;;8.47;100.00;101853.09;5148093;23;20341;-74
2022/09/19 01:24:55;;;;;;;3.55;1.58;;;9.20;99.90;;;8.44;100.00;101853.31;5146788;23;20019;-74
2022/09/19 01:27:24;;;;;;;3.13;1.40;;;9.10;99.90;;;8.25;100.00;101838.03;5148791;23;20062;-74
2022/09/19 01:29:38;;;;;;;1.70;1.20;;;9.10;99.90;;;8.24;100.00;101851.31;5147251;23;20008;-74
2022/09/19 01:31:45;;;;;;;3.50;1.65;;;9.00;99.90;;;8.12;100.00;101834.63;5122705;23;20013;-74
2022/09/19 01:34:13;;;;;;;4.72;1.70;;;9.00;99.90;;;8.24;100.00;101861.81;5122070;23;20019;-74
2022/09/19 01:36:15;;;;;;;4.95;2.08;;;8.90;99.90;;;8.24;100.00;101859.19;5148420;23;20005;-74
2022/09/19 01:38:23;;;;;;;1.83;1.38;;;8.90;99.90;;;8.21;100.00;101859.44;5147950;23;20047;-74
2022/09/19 01:40:24;;;;;;;7.47;2.25;;;8.90;99.90;;;8.11;100.00;101838.25;5122133;23;20039;-74
2022/09/19 01:42:25;;;;;;;4.85;2.03;;;8.90;99.90;;;8.16;100.00;101845.75;5146531;23;20546;-74
2022/09/19 01:44:29;;;;;;;3.85;1.65;;;8.90;99.90;;;8.25;100.00;101863.50;5146784;23;20008;-74
2022/09/19 01:47:16;;;;;;;2.90;1.38;;;9.00;99.90;;;8.14;100.00;101855.56;5148335;23;20024;-74
2022/09/19 01:50:01;;;;;;;4.03;1.75;;;8.90;99.90;;;8.14;100.00;101860.81;5079509;23;20505;-74
2022/09/19 01:52:21;;;;;;;3.95;2.03;;;8.90;99.90;;;8.19;100.00;101869.19;5147966;23;20050;-74
2022/09/19 01:55:03;;;;;;;6.28;2.22;;;8.90;99.90;;;8.20;100.00;101865.63;5148151;23;20032;-74
2022/09/19 01:57:26;;;;;;;5.75;1.90;;;8.90;99.90;;;8.19;100.00;101866.56;5148300;23;20004;-74
2022/09/19 01:59:47;;;;;;;6.82;1.88;;;8.90;99.90;;;8.20;100.00;101870.88;5146806;23;20499;-74
2022/09/19 02:02:19;;;;;;;4.82;2.33;;;9.00;99.90;;;7.97;100.00;101837.59;5148480;23;20015;-74
2022/09/19 02:04:36;;;;;;;4.68;2.45;;;8.90;99.90;;;7.96;100.00;101826.22;5122943;23;20013;-74
2022/09/19 02:06:43;;;;;;;5.15;2.55;;;8.90;99.90;;;8.01;100.00;101828.50;5121791;23;20088;-74
2022/09/19 02:09:11;;;;;;;6.10;2.53;;;8.90;99.90;;;8.21;100.00;101862.88;5146666;23;20032;-74
2022/09/19 02:11:18;;;;;;;3.95;2.00;;;8.90;99.90;;;8.27;100.00;101866.84;5146792;23;20032;-74
2022/09/19 02:13:25;;;;;;;3.95;2.17;;;9.00;99.90;;;8.23;100.00;101871.50;5146706;23;20047;-74
2022/09/19 02:15:30;;;;;;;5.15;2.50;;;9.00;99.90;;;8.06;100.00;101848.25;5121880;23;20015;-74
2022/09/19 02:17:44;;;;;;;4.28;2.75;;;9.00;99.90;;;8.21;100.00;101867.31;5146529;23;20092;-74
2022/09/19 02:19:58;;;;;;;7.82;3.63;;;8.90;99.90;;;8.04;100.00;101841.41;5146503;23;20000;-74
2022/09/19 02:22:09;;;;;;;6.22;3.20;;;8.90;99.90;;;8.21;100.00;101872.56;5146196;23;20009;-74
2022/09/19 02:24:16;;;;;;;5.53;2.30;;;8.90;99.90;;;8.08;100.00;101850.75;5122531;23;20393;-74
2022/09/19 02:26:20;;;;;;;4.90;2.72;;;8.90;99.90;;;8.11;100.00;101850.53;5146488;23;20016;-74
2022/09/19 02:28:39;;;;;;;4.85;2.40;;;8.90;99.90;;;8.15;100.00;101868.56;5146599;23;20084;-74
2022/09/19 02:30:42;;;;;;;3.83;2.72;;;8.90;99.90;;;8.10;100.00;101864.63;5146735;23;20009;-74
2022/09/19 02:32:49;;;;;;;2.40;2.08;;;8.90;99.90;;;8.11;100.00;101861.03;5146702;23;20136;-74
2022/09/19 02:34:53;;;;;;;3.75;2.00;;;8.80;99.90;;;8.03;100.00;101855.53;5122808;23;20099;-74
2022/09/19 02:37:09;;;;;;;3.40;2.00;;;8.80;99.90;;;7.94;100.00;101838.66;5146095;23;20004;-74
2022/09/19 02:39:46;;;;;;;3.10;1.92;;;8.80;99.90;;;8.07;100.00;101870.09;5146940;23;20008;-74
2022/09/19 02:42:30;;;;;;;3.83;1.98;;;8.80;99.90;;;7.91;100.00;101861.66;5145788;23;20016;-74
2022/09/19 02:45:06;;;;;;;3.97;2.05;;;8.80;99.90;;;7.96;100.00;101880.56;5125380;23;20025;-74
2022/09/19 02:47:35;;;;;;;3.55;2.67;;;8.70;99.90;;;7.80;100.00;101849.31;5146827;23;20353;-74
2022/09/19 02:51:13;;;;;;;7.30;2.42;;;8.70;99.90;;;7.93;100.00;101879.00;5146514;23;20001;-74
2022/09/19 02:53:22;;;;;;;3.78;2.03;;;8.70;99.90;;;7.85;100.00;101860.34;5146549;23;20428;-74
2022/09/19 02:55:33;;;;;;;2.42;1.67;;;8.60;99.90;;;7.71;100.00;101839.47;5146694;23;20001;-74
2022/09/19 02:57:34;;;;;;;3.42;2.17;;;8.60;99.90;;;7.65;100.00;101835.50;5146532;23;20012;-74
2022/09/19 02:59:40;;;;;;;6.05;2.63;;;8.60;99.90;;;7.72;100.00;101849.03;5146362;23;20001;-74
2022/09/19 03:01:48;;;;;;;6.15;2.13;;;8.60;99.90;;;7.81;100.00;101864.13;5146529;23;20012;-74
2022/09/19 03:04:14;;;;;;;3.38;2.13;;;8.50;99.90;;;7.77;100.00;101865.28;5122016;23;20096;-74
2022/09/19 03:06:18;;;;;;;5.35;2.20;;;8.50;99.90;;;7.70;100.00;101851.78;5124477;23;20032;-74
2022/09/19 03:08:24;;;;;;;4.60;1.90;;;8.50;99.90;;;7.59;100.00;101838.56;5146034;23;20500;-74
2022/09/19 03:10:31;;;;;;;4.75;2.03;;;8.40;99.90;;;7.67;100.00;101851.16;5146597;23;20076;-74
2022/09/19 03:12:49;;;;;;;2.25;1.63;;;8.40;99.90;;;7.67;100.00;101857.25;5147036;23;20009;-74
2022/09/19 03:14:55;;;;;;;2.83;1.90;;;8.40;99.90;;;7.56;100.00;101845.81;5146528;23;20032;-74
2022/09/19 03:16:59;;;;;;;6.03;2.97;;;8.40;99.90;;;7.55;100.00;101845.00;5146310;23;20012;-74
2022/09/19 03:19:05;;;;;;;6.32;2.78;;;8.40;99.90;;;7.53;100.00;101833.75;5146431;23;20019;-74
2022/09/19 03:21:11;;;;;;;7.43;2.75;;;8.40;99.90;;;7.58;100.00;101836.06;5146333;23;20084;-74
2022/09/19 03:23:15;;;;;;;4.53;3.25;;;8.40;99.90;;;7.61;100.00;101836.69;5121021;23;20128;-74
2022/09/19 03:25:16;;;;;;;3.88;2.35;;;8.40;99.90;;;7.57;100.00;101831.75;5147682;23;20001;-74
2022/09/19 03:27:17;;;;;;;4.65;2.28;;;8.40;99.90;;;7.72;100.00;101855.13;5147966;23;20005;-74
2022/09/19 03:29:19;;;;;;;5.03;3.28;;;8.40;99.90;;;7.66;100.00;101845.06;5121530;23;20401;-74
2022/09/19 03:31:21;;;;;;;6.18;2.60;;;8.40;99.90;;;7.61;100.00;101830.59;5123002;23;20012;-74
2022/09/19 03:33:22;;;;;;;4.00;2.22;;;8.40;99.90;;;7.57;100.00;101824.72;5149296;23;20076;-74
2022/09/19 03:35:24;;;;;;;3.40;2.22;;;8.40;99.90;;;7.50;100.00;101820.84;5149263;23;20011;-74
2022/09/19 03:37:25;;;;;;;4.03;2.72;;;8.40;99.90;;;7.65;100.00;101848.63;5149032;23;20032;-74
2022/09/19 03:39:26;;;;;;;5.57;2.28;;;8.40;99.90;;;7.55;100.00;101831.88;5148180;23;20015;-74
2022/09/19 03:41:30;;;;;;;4.03;2.63;;;8.40;99.90;;;7.51;100.00;101824.31;5149339;23;20012;-74
2022/09/19 03:43:31;;;;;;;5.30;2.47;;;8.40;99.90;;;7.54;100.00;101835.44;5123113;23;20005;-74
2022/09/19 03:45:32;;;;;;;4.15;2.03;;;8.40;99.90;;;7.65;100.00;101848.63;5149176;23;20502;-74
2022/09/19 03:47:33;;;;;;;4.10;2.20;;;8.40;99.90;;;7.51;100.00;101827.78;5149186;23;20001;-74
2022/09/19 03:49:34;;;;;;;3.15;2.35;;;8.40;99.90;;;7.54;100.00;101835.44;5122882;23;20040;-74
2022/09/19 03:51:35;;;;;;;4.28;2.03;;;8.40;99.90;;;7.49;100.00;101828.84;5147338;23;20015;-74
2022/09/19 03:53:36;;;;;;;3.85;2.60;;;8.40;99.90;;;7.61;100.00;101852.44;5149245;23;20020;-74
2022/09/19 03:55:37;;;;;;;7.82;3.13;;;8.40;99.90;;;7.65;100.00;101853.03;5147530;23;20005;-74
2022/09/19 03:57:39;;;;;;;4.78;2.90;;;8.30;99.90;;;7.55;100.00;101833.66;5149032;23;20004;-74
2022/09/19 03:59:42;;;;;;;5.35;3.72;;;8.30;99.90;;;7.50;100.00;101818.22;5147943;23;20337;-74
2022/09/19 04:01:43;;;;;;;4.90;3.00;;;8.40;99.90;;;7.46;100.00;101811.53;5147836;23;20005;-74
2022/09/19 04:03:44;;;;;;;4.30;2.50;;;8.40;99.90;;;7.54;100.00;101834.59;5147609;23;20007;-74
2022/09/19 04:05:45;;;;;;;3.65;2.25;;;8.40;99.90;;;7.45;100.00;101837.88;5147865;23;20005;-74
2022/09/19 04:07:47;;;;;;;5.03;2.17;;;8.30;99.90;;;7.37;100.00;101827.09;5148615;23;20011;-74
2022/09/19 04:09:48;;;;;;;5.25;2.70;;;8.30;99.90;;;7.40;100.00;101832.97;5149465;23;20004;-74
2022/09/19 04:11:49;;;;;;;5.60;3.58;;;8.20;99.90;;;7.33;100.00;101825.59;5148975;23;20314;-74
2022/09/19 04:13:50;;;;;;;6.78;3.42;;;8.20;99.90;;;7.34;100.00;101820.28;5147461;23;20005;-74
2022/09/19 04:15:52;;;;;;;5.55;3.45;;;8.20;99.90;;;7.35;100.00;101829.00;5147338;23;20008;-74
2022/09/19 04:17:53;;;;;;;4.05;2.55;;;8.20;99.90;;;7.39;100.00;101841.78;5148948;23;20009;-74
2022/09/19 04:19:54;;;;;;;4.70;3.45;;;8.20;99.90;;;7.28;100.00;101820.69;5147598;23;20008;-74
2022/09/19 04:22:01;;;;;;;3.63;2.42;;;8.20;99.90;;;7.35;100.00;101840.28;5147112;23;20005;-74
2022/09/19 04:24:02;;;;;;;5.57;2.60;;;8.20;99.90;;;7.36;100.00;101847.22;5149098;23;20008;-74
2022/09/19 04:26:04;;;;;;;3.72;2.40;;;8.20;99.90;;;7.22;100.00;101831.63;5149092;23;20051;-74
2022/09/19 04:28:08;;;;;;;3.15;2.00;;;8.10;99.90;;;7.19;100.00;101840.56;5149083;23;20004;-74
2022/09/19 04:30:10;;;;;;;5.57;2.40;;;8.10;99.90;;;7.15;100.00;101844.34;5147258;23;20009;-74
2022/09/19 04:32:12;;;;;;;4.78;2.08;;;8.00;99.90;;;7.24;100.00;101864.69;5148899;23;20464;-74
2022/09/19 04:34:15;;;;;;;3.95;2.10;;;8.00;99.90;;;7.26;100.00;101867.19;5148792;23;20079;-74
2022/09/19 04:36:16;;;;;;;5.32;2.55;;;8.00;99.90;;;7.05;100.00;101830.16;5148870;23;20058;-74
2022/09/19 04:38:18;;;;;;;3.45;2.45;;;8.00;99.90;;;7.07;100.00;101844.03;5148395;23;20000;-74
2022/09/19 04:40:22;;;;;;;2.83;2.25;;;8.00;99.90;;;7.17;100.00;101859.97;5148676;23;20451;-74
2022/09/19 04:42:23;;;;;;;3.70;2.20;;;7.90;99.90;;;7.04;100.00;101846.03;5146995;23;20012;-74
2022/09/19 04:44:27;;;;;;;5.32;2.22;;;7.90;99.90;;;7.07;100.00;101845.81;5148855;23;20365;-74
2022/09/19 04:46:28;;;;;;;3.65;1.80;;;7.90;99.90;;;7.13;100.00;101861.13;5123052;23;20018;-74
2022/09/19 04:48:30;;;;;;;3.85;2.10;;;7.90;99.90;;;6.95;100.00;101830.94;5147093;23;20008;-74
2022/09/19 04:50:34;;;;;;;4.05;2.20;;;7.90;99.90;;;7.02;100.00;101847.91;5147261;23;20405;-74
2022/09/19 04:52:37;;;;;;;3.78;1.92;;;7.90;99.90;;;7.09;100.00;101854.41;5122319;23;20049;-74
2022/09/19 04:54:39;;;;;;;3.65;2.50;;;7.90;99.90;;;6.97;100.00;101826.41;5122844;23;20009;-74
2022/09/19 04:56:44;;;;;;;4.78;2.03;;;7.90;99.90;;;7.10;100.00;101849.06;5147287;23;20008;-74
2022/09/19 04:58:45;;;;;;;4.63;2.40;;;7.80;99.90;;;7.03;100.00;101834.69;5148646;23;20068;-74
2022/09/19 05:00:53;;;;;;;4.47;2.33;;;7.90;99.90;;;7.18;100.00;101853.78;5147171;23;20097;-74
2022/09/19 05:02:55;;;;;;;3.20;2.00;;;7.90;99.90;;;7.00;100.00;101826.19;5148773;23;20062;-74
2022/09/19 05:04:56;;;;;;;2.97;2.17;;;7.90;99.90;;;6.98;100.00;101821.06;5147310;23;20004;-74
2022/09/19 05:06:57;;;;;;;3.08;2.00;;;7.90;99.90;;;7.02;100.00;101837.41;5148214;23;20009;-74
2022/09/19 05:08:58;;;;;;;5.80;2.15;;;7.90;99.90;;;6.99;100.00;101840.28;5148533;23;20023;-74
2022/09/19 05:11:03;;;;;;;3.30;2.10;;;7.80;99.90;;;7.00;100.00;101840.16;5148538;23;20059;-74
2022/09/19 05:13:04;;;;;;;3.45;2.05;;;7.80;99.90;;;6.94;100.00;101844.97;5148572;23;20340;-74
2022/09/19 05:15:06;;;;;;;3.63;2.28;;;7.80;99.90;;;6.99;100.00;101837.66;5122297;23;20013;-74
2022/09/19 05:17:07;;;;;;;3.03;2.42;;;7.80;99.90;;;7.03;100.00;101844.34;5121971;23;20039;-74
2022/09/19 05:19:08;;;;;;;2.00;1.70;;;7.80;99.90;;;6.91;100.00;101824.22;5171829;23;20004;-74
2022/09/19 05:21:14;;;;;;;4.18;2.00;;;7.80;99.90;;;6.97;100.00;101832.50;5146778;23;20009;-74
2022/09/19 05:23:16;;;;;;;3.88;2.22;;;7.80;99.90;;;7.02;100.00;101847.91;5148047;23;20000;-74
2022/09/19 05:25:17;;;;;;;3.83;2.70;;;7.80;99.90;;;6.98;100.00;101839.44;5147106;23;20011;-74
2022/09/19 05:27:19;;;;;;;3.85;2.22;;;7.80;99.90;;;6.95;100.00;101830.94;5121717;23;20053;-74
2022/09/19 05:29:19;;;;;;;4.07;2.90;;;7.80;99.90;;;7.08;100.00;101853.56;5148610;23;20011;-74
2022/09/19 05:31:20;;;;;;;4.05;2.47;;;7.80;99.90;;;7.09;100.00;101851.78;5148654;23;20005;-74
2022/09/19 05:33:26;;;;;;;4.47;2.38;;;7.80;99.90;;;6.99;100.00;101827.97;5146395;23;20074;-74
2022/09/19 05:35:28;;;;;;;2.78;2.15;;;7.80;99.90;;;7.07;100.00;101845.81;5148332;23;20507;-74
2022/09/19 05:37:30;;;;;;;3.95;2.15;;;7.80;99.90;;;7.01;100.00;101841.84;5147920;23;20464;-74
2022/09/19 05:39:31;;;;;;;3.38;2.08;;;7.80;99.90;;;6.98;100.00;101844.69;5146832;23;20011;-74
2022/09/19 05:41:32;;;;;;;2.95;1.70;;;7.80;99.90;;;6.93;100.00;101832.84;5121707;23;20009;-74
2022/09/19 05:43:34;;;;;;;5.75;2.00;;;7.80;99.90;;;6.96;100.00;101843.09;5146812;23;20005;-74
2022/09/19 05:45:37;;;;;;;3.40;2.05;;;7.80;99.90;;;6.86;100.00;101834.19;5148277;23;20028;-74
2022/09/19 05:47:39;;;;;;;2.58;1.98;;;7.70;99.90;;;6.99;100.00;101858.63;5146704;23;20011;-74
2022/09/19 05:49:40;;;;;;;3.25;2.47;;;7.70;99.90;;;6.77;100.00;101824.31;5146709;23;20027;-74
2022/09/19 05:51:41;;;;;;;2.72;2.05;;;7.70;99.90;;;6.90;100.00;101841.72;5146568;23;20009;-73
2022/09/19 05:53:57;;;;;;;2.92;2.00;;;7.70;99.90;;;6.90;100.00;101849.59;5148225;23;20008;-74
2022/09/19 05:55:59;;;;;;;2.70;2.40;;;7.70;99.90;;;6.87;100.00;101843.75;5148102;23;20008;-74
2022/09/19 05:58:00;;;;;;;3.03;2.22;;;7.80;99.90;;;6.86;100.00;101839.44;5148111;23;20036;-74
2022/09/19 06:00:02;;;;;;;2.72;2.00;;;7.80;99.90;;;6.89;100.00;101834.81;5146556;23;20464;-74
2022/09/19 06:02:05;;;;;;;4.35;1.80;;;7.80;99.90;;;7.09;100.00;101868.38;5148101;23;20444;-73
2022/09/19 06:04:07;;;;;;;3.72;2.35;;;7.80;99.90;;;7.09;100.00;101868.38;5146795;23;20043;-74
2022/09/19 06:06:20;;;;;;;2.67;1.80;;;7.80;99.90;;;6.90;100.00;101833.03;5146538;23;20005;-74
2022/09/19 06:08:22;;;;;;;3.17;2.00;;;7.80;99.90;;;6.96;100.00;101849.16;5147820;23;20039;-74
2022/09/19 06:10:24;;;;;;;3.17;1.95;;;7.80;99.90;;;7.04;100.00;101861.78;5146739;23;20056;-74
2022/09/19 06:12:25;;;;;;;3.88;1.70;;;7.90;99.90;;;7.12;100.00;101869.94;5146466;23;20011;-74
2022/09/19 06:14:27;;;;;;;1.70;1.42;;;7.90;99.90;;;7.02;100.00;101850.53;5148410;23;20028;-74
2022/09/19 06:16:28;;;;;;;3.35;2.00;;;7.80;99.90;;;7.10;100.00;101862.19;5148037;23;20012;-74
2022/09/19 06:18:29;;;;;;;2.25;1.65;;;7.90;99.90;;;7.23;100.00;101877.91;5148000;23;20036;-74
2022/09/19 06:20:30;;;;;;;3.40;1.70;;;7.90;99.90;;;7.11;100.00;101857.75;5146392;23;20433;-73
2022/09/19 06:22:31;;;;;;;4.25;2.30;;;7.90;99.90;;;7.20;100.00;101875.50;5147638;23;20000;-74
2022/09/19 06:24:31;;;;;;;3.28;2.33;;;8.00;99.90;;;7.21;100.00;101866.69;5146311;23;20004;-74
2022/09/19 06:26:33;;;;;;;3.97;2.58;;;8.00;99.90;;;7.22;100.00;101861.34;5148050;23;20005;-74
2022/09/19 06:28:34;;;;;;;5.43;2.67;;;8.10;99.90;;;7.31;100.00;101865.09;5121695;23;20189;-74
2022/09/19 06:30:35;;;;;;;3.55;2.03;;;8.10;99.90;;;7.33;100.00;101863.19;5147996;23;20009;-74
2022/09/19 06:32:38;;;;;;;5.38;2.47;;;8.20;99.90;;;7.53;100.00;101894.13;5148112;23;20031;-74
2022/09/19 06:34:39;;;;;;;3.08;2.78;;;8.20;99.90;;;7.42;100.00;101873.06;5146120;23;20028;-74
2022/09/19 06:36:44;;;;;;;3.22;2.13;;;8.30;99.90;;;7.60;100.00;101892.75;5147655;23;20024;-74
2022/09/19 06:38:45;;;;;;;4.05;2.30;;;8.30;99.90;;;7.65;100.00;101895.03;5146366;23;20008;-74
2022/09/19 06:40:46;;;;;;;8.82;2.90;;;8.40;99.90;;;7.55;100.00;101867.78;5148064;23;20055;-74
2022/09/19 06:42:47;;;;;;;6.68;3.92;;;8.40;99.90;;;7.71;100.00;101884.09;5146443;23;20008;-74
2022/09/19 06:44:48;;;;;;;6.05;3.30;;;8.50;99.90;;;7.71;100.00;101882.31;5147830;23;20007;-74
2022/09/19 06:46:49;;;;;;;6.72;3.15;;;8.50;99.90;;;7.69;100.00;101868.47;5148099;23;20008;-74
2022/09/19 06:48:50;;;;;;;5.47;2.80;;;8.60;99.90;;;7.95;100.00;101892.84;5146511;23;20136;-74
2022/09/19 06:50:51;;;;;;;3.83;2.63;;;8.70;99.90;;;8.01;100.00;101897.66;5147865;23;20043;-74
2022/09/19 06:52:52;;;;;;;4.80;3.00;;;8.70;99.90;;;7.93;100.00;101872.91;5146127;23;20015;-74
2022/09/19 06:54:54;;;;;;;4.22;2.40;;;8.70;99.90;;;8.09;100.00;101897.97;5148070;23;20009;-74
2022/09/19 06:56:54;;;;;;;4.00;2.90;;;8.80;99.90;;;8.13;100.00;101895.94;5148021;23;20068;-74
2022/09/19 06:58:55;;;;;;;5.20;3.13;;;8.90;99.90;;;8.23;100.00;101896.94;5146531;23;20013;-74
2022/09/19 07:01:01;;;;;;;5.00;3.63;;;8.90;99.90;;;8.16;100.00;101879.94;5147933;23;20013;-74
2022/09/19 07:03:09;;;;;;;4.43;3.30;;;9.00;99.90;;;8.22;100.00;101885.59;5147835;23;20418;-74
2022/09/19 07:05:12;;;;;;;6.70;3.83;;;9.10;99.90;;;8.32;100.00;101897.13;5122462;23;20431;-74
2022/09/19 07:07:15;;;;;;;4.97;3.45;;;9.20;99.90;;;8.52;100.00;101919.31;5147460;23;20087;-74
2022/09/19 07:09:16;;;;;;;6.38;3.03;;;9.20;99.90;;;8.44;100.00;101898.03;5148028;23;20052;-74
2022/09/19 07:11:17;;;;;;;5.55;3.72;;;9.30;99.90;;;8.48;100.00;101899.47;5149737;23;20012;-74
2022/09/19 07:13:19;;;;;;;5.93;3.72;;;9.40;99.90;;;8.56;100.00;101899.72;5148469;23;20385;-74
2022/09/19 07:15:20;;;;;;;6.18;4.22;;;9.40;99.90;;;8.71;100.00;101919.63;5149398;23;20012;-74
2022/09/19 07:17:21;;;;;;;5.60;3.95;;;9.50;99.90;;;8.68;100.00;101901.44;5149817;23;20004;-74
2022/09/19 07:19:23;;;;;;;5.20;4.00;;;9.60;99.90;;;8.80;100.00;101918.94;5149343;23;20043;-74
2022/09/19 07:21:25;;;;;;;7.43;4.65;;;9.60;99.90;;;8.84;100.00;101909.03;5122324;23;20005;-74
2022/09/19 07:23:26;;;;;;;4.78;3.72;;;9.70;99.90;;;8.92;100.00;101913.69;5148065;23;20009;-74
2022/09/19 07:25:28;;;;;;;7.57;4.35;;;9.80;99.90;;;9.00;100.00;101914.78;5149092;23;20012;-74
2022/09/19 07:27:30;;;;;;;4.28;3.55;;;9.80;99.90;;;9.10;100.00;101921.03;5122851;23;20009;-74
2022/09/19 07:29:31;;;;;;;6.75;3.55;;;9.90;99.90;;;9.06;100.00;101908.19;5123099;23;20016;-74
2022/09/19 07:31:32;;;;;;;6.03;3.60;;;10.00;99.90;;;9.25;100.00;101932.16;5173066;23;20008;-74
2022/09/19 07:33:33;;;;;;;4.65;3.67;;;10.00;99.90;;;9.14;100.00;101905.84;5149206;23;20020;-74
2022/09/19 07:35:37;;;;;;;7.75;3.70;;;10.10;99.90;;;9.22;100.00;101911.34;5149318;23;20012;-74
2022/09/19 07:37:38;;;;;;;4.80;3.63;;;10.10;99.90;;;9.25;100.00;101914.59;5147888;23;20396;-74
2022/09/19 07:39:39;;;;;;;7.45;4.25;;;10.20;99.90;;;9.23;100.00;101900.69;5147847;23;20024;-74
2022/09/19 07:41:40;;;;;;;5.30;3.55;;;10.20;99.90;;;9.39;100.00;101916.97;5147527;23;20005;-74
2022/09/19 07:43:41;;;;;;;4.10;3.15;;;10.30;99.90;;;9.43;100.00;101918.41;5149298;23;20012;-74
2022/09/19 07:45:45;;;;;;;4.47;3.30;;;10.30;99.90;;;9.40;100.00;101907.28;5149221;23;20012;-74
2022/09/19 07:47:49;;;;;;;7.03;3.30;;;10.40;99.90;;;9.61;100.00;101933.72;5148238;23;20004;-74
2022/09/19 07:49:50;;;;;;;;;;;10.40;99.90;;;9.44;100.00;101900.78;5123811;23;20004;-74
2022/09/19 07:51:51;;;;;;;5.10;3.65;;;10.50;99.90;;;9.74;100.00;101945.81;5147291;23;19903;-74
2022/09/19 07:53:52;;;;;;;5.85;3.17;;;10.50;99.90;;;9.79;100.00;101935.75;5149320;23;20007;-74
2022/09/19 07:55:56;;;;;;;4.60;3.53;;;10.60;99.90;;;9.79;100.00;101924.38;5147918;23;20365;-74
2022/09/19 07:57:59;;;;;;;5.03;2.43;;;10.70;99.90;;;9.88;100.00;101928.91;5149220;23;20020;-74
2022/09/19 08:00:00;;;;;;;5.47;3.47;;;10.80;99.90;;;9.96;100.00;101934.41;5149131;23;20001;-74
2022/09/19 08:02:03;;;;;;;4.43;2.92;;;10.80;99.90;;;9.98;100.00;101925.41;5148989;23;20008;-74
2022/09/19 08:04:04;;;;;;;5.70;3.53;;;10.90;99.90;;;10.09;100.00;101929.81;5147492;23;20028;-74
2022/09/19 08:06:05;;;;;;;5.60;3.13;;;11.00;99.90;;;10.27;100.00;101943.34;5149163;23;20008;-74
2022/09/19 08:08:10;;;;;;;5.55;3.30;;;11.10;99.90;;;10.26;100.00;101920.56;5148940;23;20004;-74
2022/09/19 08:10:11;;;;;;;5.15;2.83;;;11.20;99.90;;;10.41;100.00;101930.72;5149282;23;20337;-74
2022/09/19 08:12:12;;;;;;;4.15;2.65;;;11.30;99.90;;;10.49;100.00;101930.91;5148919;23;20040;-74
2022/09/19 08:14:13;;;;;;;5.85;3.50;;;11.40;99.90;;;10.59;100.00;101938.06;5147715;23;20433;-74
2022/09/19 08:16:14;;;;;;;4.93;3.00;;;11.50;99.90;;;10.65;100.00;101935.75;5148440;23;20004;-74
2022/09/19 08:18:19;;;;;;;4.95;2.90;;;11.50;99.90;;;10.75;100.00;101934.00;5149089;23;20004;-74
2022/09/19 08:20:20;;;;;;;5.50;2.80;;;11.70;99.90;;;10.99;100.00;101961.00;5147124;23;20334;-74
2022/09/19 08:22:21;;;;;;;7.65;2.85;;;11.80;99.90;;;11.03;100.00;101951.03;5148546;23;20023;-74
2022/09/19 08:24:22;;;;;;;3.47;2.47;;;11.90;99.90;;;11.05;100.00;101942.00;5148869;23;20001;-74
2022/09/19 08:26:24;;;;;;;3.55;2.78;;;12.00;99.90;;;11.30;100.00;101966.31;5147505;23;20067;-74
2022/09/19 08:28:25;;;;;;;5.07;2.78;;;12.10;99.90;;;11.32;100.00;101956.50;5149124;23;20007;-74
2022/09/19 08:30:27;;;;;;;3.35;2.78;;;12.20;99.90;;;11.33;100.00;101943.13;5147345;23;20371;-74
2022/09/19 08:32:28;;;;;;;4.72;2.80;;;12.20;99.90;;;11.47;100.00;101957.78;5147197;23;20064;-74
2022/09/19 08:34:28;;;;;;;6.75;3.05;;;12.30;99.90;;;11.67;100.00;101970.13;5146934;23;20009;-74
2022/09/19 08:36:29;;;;;;;6.22;3.72;;;12.40;99.90;;;11.67;100.00;101946.34;5148450;23;20001;-74
2022/09/19 08:38:30;;;;;;;8.18;2.63;;;12.50;99.90;;;11.75;100.00;101943.91;5149081;23;20007;-74
2022/09/19 08:41:10;;;;;;;5.18;2.70;;;12.60;99.90;;;11.91;100.00;101948.69;5148660;23;20001;-74
2022/09/19 08:44:02;;;;;;;3.35;2.08;;;12.80;99.90;;;12.14;100.00;101969.47;5147462;23;20008;-74
2022/09/19 08:46:15;;;;;;;4.18;2.40;;;12.90;99.90;;;12.21;100.00;101956.53;5146980;23;20063;-74
2022/09/19 08:48:24;;;;;;;5.72;2.47;;;13.00;99.90;;;12.37;100.00;101958.63;5122716;23;20005;-74
2022/09/19 08:50:29;;;;;;;2.83;2.50;;;13.20;99.90;;;12.50;100.00;101968.00;5148836;23;20459;-74
2022/09/19 08:52:47;;;;;;;5.20;2.40;;;13.30;99.90;;;12.49;100.00;101945.13;5146884;23;20004;-74